Private Wetterstation Sandau
Wetterdaten: Freitag, 13.01.2012
Datum Zeit Temp. A. Feuchte A. Luftdruck Regen Wind Richtung Richtung Taupunkt Windchill
13.01.2012 00:02 3,9 C 82 % 1014,9 hPa 0,0 l/m 12,2 km/h (2 Bft) W-NW 292 1,1 C 0,9 C
13.01.2012 00:07 4,0 C 82 % 1014,9 hPa 0,0 l/m 23,0 km/h (4 Bft) W 270 1,2 C -0,6 C
13.01.2012 00:12 4,1 C 82 % 1014,8 hPa 0,0 l/m 14,8 km/h (3 Bft) W 270 1,3 C 0,7 C
13.01.2012 00:17 4,1 C 82 % 1014,8 hPa 0,0 l/m 20,2 km/h (4 Bft) W-NW 292 1,3 C -0,1 C
13.01.2012 00:22 4,1 C 82 % 1015,0 hPa 0,0 l/m 17,6 km/h (3 Bft) NW 315 1,3 C 0,2 C
13.01.2012 00:27 4,2 C 82 % 1014,9 hPa 0,0 l/m 16,2 km/h (3 Bft) W 270 1,4 C 0,6 C
13.01.2012 00:32 4,2 C 82 % 1014,9 hPa 0,0 l/m 14,8 km/h (3 Bft) W 270 1,4 C 0,8 C
13.01.2012 00:37 4,2 C 82 % 1015,0 hPa 0,0 l/m 19,8 km/h (3 Bft) W 270 1,4 C 0,1 C
13.01.2012 00:42 4,2 C 82 % 1014,9 hPa 0,0 l/m 15,5 km/h (3 Bft) NW 315 1,4 C 0,7 C
13.01.2012 00:47 4,1 C 82 % 1014,9 hPa 0,0 l/m 28,4 km/h (4 Bft) W-NW 292 1,3 C -1,0 C
13.01.2012 00:52 3,9 C 82 % 1015,1 hPa 0,0 l/m 16,6 km/h (3 Bft) W 270 1,1 C 0,1 C
13.01.2012 00:57 3,9 C 83 % 1015,0 hPa 0,0 l/m 28,8 km/h (4 Bft) NW 315 1,3 C -1,3 C
13.01.2012 01:02 3,8 C 83 % 1015,0 hPa 0,0 l/m 23,0 km/h (4 Bft) W-NW 292 1,2 C -0,8 C
13.01.2012 01:07 3,8 C 83 % 1015,1 hPa 0,0 l/m 23,4 km/h (4 Bft) W-NW 292 1,2 C -0,9 C
13.01.2012 01:12 3,8 C 83 % 1014,9 hPa 0,0 l/m 22,0 km/h (4 Bft) W-NW 292 1,2 C -0,7 C
13.01.2012 01:17 3,8 C 83 % 1015,1 hPa 0,0 l/m 20,2 km/h (4 Bft) W-NW 292 1,2 C -0,5 C
13.01.2012 01:22 3,8 C 82 % 1015,0 hPa 0,0 l/m 21,2 km/h (4 Bft) W 270 1,0 C -0,6 C
13.01.2012 01:27 3,8 C 82 % 1015,2 hPa 0,0 l/m 13,7 km/h (3 Bft) W 270 1,0 C 0,5 C
13.01.2012 01:32 3,8 C 82 % 1015,0 hPa 0,0 l/m 16,9 km/h (3 Bft) W 270 1,0 C -0,0 C
13.01.2012 01:37 3,8 C 82 % 1015,1 hPa 0,0 l/m 16,9 km/h (3 Bft) W-SW 247 1,0 C -0,0 C
13.01.2012 01:42 3,8 C 82 % 1015,0 hPa 0,0 l/m 22,3 km/h (4 Bft) W 270 1,0 C -0,7 C
13.01.2012 01:47 3,8 C 82 % 1015,2 hPa 0,0 l/m 17,3 km/h (3 Bft) NW 315 1,0 C -0,1 C
13.01.2012 01:52 3,8 C 82 % 1015,0 hPa 0,0 l/m 14,4 km/h (3 Bft) W-NW 292 1,0 C 0,4 C
13.01.2012 01:57 3,8 C 82 % 1015,0 hPa 0,0 l/m 18,0 km/h (3 Bft) W 270 1,0 C -0,2 C
13.01.2012 02:02 3,6 C 82 % 1015,1 hPa 0,0 l/m 25,6 km/h (4 Bft) W-NW 292 0,8 C -1,3 C
13.01.2012 02:07 3,6 C 82 % 1015,1 hPa 0,0 l/m 27,4 km/h (4 Bft) W 270 0,8 C -1,5 C
13.01.2012 02:12 3,5 C 82 % 1015,1 hPa 0,0 l/m 17,6 km/h (3 Bft) NW 315 0,7 C -0,5 C
13.01.2012 02:17 3,5 C 82 % 1015,0 hPa 0,0 l/m 14,4 km/h (3 Bft) W 270 0,7 C -0,0 C
13.01.2012 02:22 3,4 C 82 % 1014,9 hPa 0,0 l/m 19,1 km/h (3 Bft) W-NW 292 0,6 C -0,8 C
13.01.2012 02:27 3,4 C 82 % 1015,1 hPa 0,0 l/m 20,5 km/h (4 Bft) W 270 0,6 C -1,0 C
13.01.2012 02:32 3,3 C 83 % 1015,0 hPa 0,0 l/m 15,5 km/h (3 Bft) W 270 0,7 C -0,4 C
13.01.2012 02:37 3,3 C 83 % 1015,2 hPa 0,0 l/m 17,6 km/h (3 Bft) W-NW 292 0,7 C -0,7 C
13.01.2012 02:42 3,3 C 83 % 1015,3 hPa 0,0 l/m 16,9 km/h (3 Bft) W 270 0,7 C -0,6 C
13.01.2012 02:47 3,3 C 84 % 1015,1 hPa 0,0 l/m 18,4 km/h (3 Bft) W-SW 247 0,9 C -0,9 C
13.01.2012 02:52 3,3 C 84 % 1015,3 hPa 0,0 l/m 25,2 km/h (4 Bft) W-NW 292 0,9 C -1,7 C
13.01.2012 02:57 3,3 C 84 % 1015,4 hPa 0,0 l/m 18,4 km/h (3 Bft) W-NW 292 0,9 C -0,9 C
13.01.2012 03:02 3,3 C 84 % 1015,3 hPa 0,0 l/m 16,6 km/h (3 Bft) W 270 0,9 C -0,6 C
13.01.2012 03:07 3,3 C 84 % 1015,5 hPa 0,0 l/m 19,1 km/h (3 Bft) W-NW 292 0,9 C -1,0 C
13.01.2012 03:12 3,3 C 84 % 1015,5 hPa 0,0 l/m 17,6 km/h (3 Bft) W-NW 292 0,9 C -0,7 C
13.01.2012 03:17 3,4 C 84 % 1015,3 hPa 0,0 l/m 25,2 km/h (4 Bft) NW 315 1,0 C -1,6 C
13.01.2012 03:22 3,4 C 84 % 1015,4 hPa 0,0 l/m 20,9 km/h (4 Bft) W 270 1,0 C -1,1 C
13.01.2012 03:27 3,4 C 84 % 1015,5 hPa 0,0 l/m 11,2 km/h (2 Bft) W 270 1,0 C 0,5 C
13.01.2012 03:32 3,5 C 84 % 1015,3 hPa 0,0 l/m 13,7 km/h (3 Bft) NW 315 1,1 C 0,1 C
13.01.2012 03:37 3,6 C 84 % 1015,3 hPa 0,0 l/m 9,7 km/h (2 Bft) W 270 1,2 C 1,1 C
13.01.2012 03:42 3,6 C 84 % 1015,4 hPa 0,0 l/m 19,1 km/h (3 Bft) W 270 1,2 C -0,6 C
13.01.2012 03:47 3,6 C 83 % 1015,6 hPa 0,0 l/m 20,2 km/h (4 Bft) W-SW 247 1,0 C -0,7 C
13.01.2012 03:52 3,6 C 83 % 1015,7 hPa 0,0 l/m 15,5 km/h (3 Bft) N-NW 337 1,0 C -0,1 C
13.01.2012 03:57 3,6 C 83 % 1015,5 hPa 0,0 l/m 16,6 km/h (3 Bft) W-NW 292 1,0 C -0,2 C
13.01.2012 04:02 3,6 C 84 % 1015,5 hPa 0,0 l/m 18,7 km/h (3 Bft) W-SW 247 1,2 C -0,5 C
13.01.2012 04:07 3,5 C 84 % 1015,3 hPa 0,0 l/m 17,3 km/h (3 Bft) W-SW 247 1,1 C -0,5 C
13.01.2012 04:12 3,5 C 84 % 1015,4 hPa 0,0 l/m 9,7 km/h (2 Bft) W 270 1,1 C 0,9 C
13.01.2012 04:17 3,5 C 84 % 1015,4 hPa 0,0 l/m 25,2 km/h (4 Bft) W-NW 292 1,1 C -1,4 C
13.01.2012 04:22 3,6 C 84 % 1015,3 hPa 0,0 l/m 9,0 km/h (2 Bft) W 270 1,2 C 1,2 C
13.01.2012 04:27 3,6 C 84 % 1015,4 hPa 0,0 l/m 17,3 km/h (3 Bft) S-SW 202 1,2 C -0,3 C
13.01.2012 04:32 3,6 C 84 % 1015,5 hPa 0,0 l/m 15,5 km/h (3 Bft) SW 225 1,2 C -0,1 C
13.01.2012 04:37 3,6 C 84 % 1015,4 hPa 0,5 l/m 26,3 km/h (4 Bft) W 270 1,2 C -1,4 C
13.01.2012 04:42 3,5 C 85 % 1015,2 hPa 0,0 l/m 9,4 km/h (2 Bft) W 270 1,2 C 1,0 C
13.01.2012 04:47 3,3 C 84 % 1015,1 hPa 0,0 l/m 25,6 km/h (4 Bft) W-NW 292 0,9 C -1,7 C
13.01.2012 04:52 3,3 C 85 % 1014,9 hPa 0,0 l/m 21,6 km/h (4 Bft) W-SW 247 1,0 C -1,3 C
13.01.2012 04:57 3,2 C 85 % 1015,0 hPa 0,0 l/m 7,2 km/h (2 Bft) W-NW 292 0,9 C 1,3 C
13.01.2012 05:02 3,1 C 85 % 1014,9 hPa 0,0 l/m 26,6 km/h (4 Bft) W-NW 292 0,8 C -2,1 C
13.01.2012 05:07 3,1 C 85 % 1015,0 hPa 0,0 l/m 17,6 km/h (3 Bft) W-NW 292 0,8 C -1,0 C
13.01.2012 05:12 3,1 C 85 % 1014,9 hPa 0,0 l/m 30,2 km/h (5 Bft) W 270 0,8 C -2,4 C
13.01.2012 05:17 3,1 C 85 % 1015,0 hPa 0,0 l/m 16,6 km/h (3 Bft) W-SW 247 0,8 C -0,8 C
13.01.2012 05:22 3,1 C 85 % 1014,8 hPa 0,0 l/m 28,4 km/h (4 Bft) W-NW 292 0,8 C -2,3 C
13.01.2012 05:27 3,1 C 85 % 1014,9 hPa 0,0 l/m 28,8 km/h (4 Bft) W-NW 292 0,8 C -2,3 C
13.01.2012 05:32 3,1 C 85 % 1014,8 hPa 0,0 l/m 22,0 km/h (4 Bft) W-NW 292 0,8 C -1,6 C
13.01.2012 05:37 3,1 C 85 % 1014,8 hPa 0,0 l/m 16,6 km/h (3 Bft) W-SW 247 0,8 C -0,8 C
13.01.2012 05:42 3,1 C 85 % 1014,6 hPa 0,0 l/m 6,5 km/h (2 Bft) W-NW 292 0,8 C 1,4 C
13.01.2012 05:47 3,0 C 85 % 1014,6 hPa 0,0 l/m 20,2 km/h (4 Bft) W-SW 247 0,7 C -1,5 C
13.01.2012 05:52 3,0 C 85 % 1014,7 hPa 0,0 l/m 14,8 km/h (3 Bft) W 270 0,7 C -0,7 C
13.01.2012 05:57 2,9 C 85 % 1014,7 hPa 0,0 l/m 24,5 km/h (4 Bft) W-SW 247 0,6 C -2,1 C
13.01.2012 06:02 2,9 C 85 % 1014,7 hPa 0,0 l/m 19,1 km/h (3 Bft) NW 315 0,6 C -1,5 C
13.01.2012 06:07 2,8 C 85 % 1014,8 hPa 0,0 l/m 7,6 km/h (2 Bft) W-NW 292 0,5 C 0,7 C
13.01.2012 06:12 2,8 C 85 % 1014,9 hPa 0,0 l/m 16,6 km/h (3 Bft) W-SW 247 0,5 C -1,2 C
13.01.2012 06:17 2,7 C 85 % 1014,9 hPa 0,0 l/m 15,8 km/h (3 Bft) W-SW 247 0,4 C -1,2 C
13.01.2012 06:22 2,8 C 86 % 1014,9 hPa 0,0 l/m 13,0 km/h (3 Bft) W 270 0,7 C -0,6 C
13.01.2012 06:27 2,7 C 86 % 1014,9 hPa 0,0 l/m 15,1 km/h (3 Bft) W-SW 247 0,6 C -1,1 C
13.01.2012 06:32 2,7 C 86 % 1015,0 hPa 0,0 l/m 13,3 km/h (3 Bft) W-NW 292 0,6 C -0,8 C
13.01.2012 06:37 2,6 C 86 % 1014,9 hPa 0,0 l/m 19,8 km/h (3 Bft) W-NW 292 0,5 C -1,9 C
13.01.2012 06:42 2,6 C 86 % 1014,8 hPa 0,0 l/m 10,4 km/h (2 Bft) W 270 0,5 C -0,3 C
13.01.2012 06:47 2,6 C 86 % 1014,8 hPa 0,0 l/m 16,9 km/h (3 Bft) W-NW 292 0,5 C -1,5 C
13.01.2012 06:52 2,6 C 86 % 1014,7 hPa 0,0 l/m 16,2 km/h (3 Bft) W 270 0,5 C -1,4 C
13.01.2012 06:57 2,6 C 86 % 1014,6 hPa 0,0 l/m 25,6 km/h (4 Bft) W 270 0,5 C -2,6 C
13.01.2012 07:02 2,7 C 86 % 1014,6 hPa 0,0 l/m 14,4 km/h (3 Bft) W-NW 292 0,6 C -1,0 C
13.01.2012 07:07 2,6 C 86 % 1014,7 hPa 0,0 l/m 14,4 km/h (3 Bft) W-NW 292 0,5 C -1,1 C
13.01.2012 07:12 2,6 C 86 % 1014,5 hPa 0,0 l/m 8,3 km/h (2 Bft) W-NW 292 0,5 C 0,2 C
13.01.2012 07:17 2,6 C 86 % 1014,5 hPa 0,0 l/m 20,5 km/h (4 Bft) W-NW 292 0,5 C -2,0 C
13.01.2012 07:22 2,6 C 86 % 1014,4 hPa 0,0 l/m 7,9 km/h (2 Bft) SW 225 0,5 C 0,3 C
13.01.2012 07:27 2,6 C 86 % 1014,6 hPa 0,0 l/m 13,0 km/h (3 Bft) W-NW 292 0,5 C -0,8 C
13.01.2012 07:32 2,6 C 86 % 1014,6 hPa 0,0 l/m 14,4 km/h (3 Bft) W-NW 292 0,5 C -1,1 C
13.01.2012 07:37 2,6 C 86 % 1014,6 hPa 0,0 l/m 24,1 km/h (4 Bft) W 270 0,5 C -2,5 C
13.01.2012 07:42 2,6 C 86 % 1014,5 hPa 0,0 l/m 18,7 km/h (3 Bft) W-SW 247 0,5 C -1,8 C
13.01.2012 07:47 2,6 C 86 % 1014,6 hPa 0,0 l/m 12,6 km/h (3 Bft) W-SW 247 0,5 C -0,8 C
13.01.2012 07:52 2,6 C 85 % 1014,6 hPa 0,0 l/m 17,6 km/h (3 Bft) N-NW 337 0,3 C -1,6 C
13.01.2012 07:57 2,6 C 85 % 1014,6 hPa 0,0 l/m 17,6 km/h (3 Bft) W-NW 292 0,3 C -1,6 C
13.01.2012 08:02 2,6 C 85 % 1014,6 hPa 0,0 l/m 14,0 km/h (3 Bft) W-NW 292 0,3 C -1,0 C
13.01.2012 08:07 2,6 C 85 % 1014,5 hPa 0,0 l/m 24,5 km/h (4 Bft) W 270 0,3 C -2,5 C
13.01.2012 08:12 2,6 C 85 % 1014,5 hPa 0,0 l/m 14,8 km/h (3 Bft) W-NW 292 0,3 C -1,2 C
13.01.2012 08:17 2,6 C 85 % 1014,7 hPa 0,0 l/m 11,9 km/h (2 Bft) W 270 0,3 C -0,6 C
13.01.2012 08:22 2,6 C 85 % 1014,7 hPa 0,0 l/m 8,6 km/h (2 Bft) W 270 0,3 C 0,1 C
13.01.2012 08:27 2,7 C 85 % 1014,8 hPa 0,0 l/m 13,7 km/h (3 Bft) W-NW 292 0,4 C -0,9 C
13.01.2012 08:32 2,7 C 85 % 1014,9 hPa 0,0 l/m 22,0 km/h (4 Bft) W-NW 292 0,4 C -2,1 C
13.01.2012 08:37 2,8 C 85 % 1014,9 hPa 0,0 l/m 12,2 km/h (2 Bft) N-NW 337 0,5 C -0,4 C
13.01.2012 08:42 2,8 C 85 % 1015,0 hPa 0,0 l/m 18,4 km/h (3 Bft) W-NW 292 0,5 C -1,5 C
13.01.2012 08:47 2,8 C 85 % 1015,2 hPa 0,0 l/m 15,1 km/h (3 Bft) W-SW 247 0,5 C -1,0 C
13.01.2012 08:52 2,8 C 85 % 1015,0 hPa 0,0 l/m 18,0 km/h (3 Bft) W 270 0,5 C -1,4 C
13.01.2012 08:57 2,8 C 85 % 1015,2 hPa 0,0 l/m 13,3 km/h (3 Bft) W 270 0,5 C -0,7 C
13.01.2012 09:02 2,9 C 85 % 1015,2 hPa 0,0 l/m 27,0 km/h (4 Bft) W-NW 292 0,6 C -2,4 C
13.01.2012 09:07 2,9 C 85 % 1015,4 hPa 0,0 l/m 25,2 km/h (4 Bft) W-NW 292 0,6 C -2,2 C
13.01.2012 09:12 2,9 C 84 % 1015,2 hPa 0,0 l/m 11,9 km/h (2 Bft) NW 315 0,5 C -0,3 C
13.01.2012 09:17 2,9 C 84 % 1015,4 hPa 0,0 l/m 17,3 km/h (3 Bft) W-SW 247 0,5 C -1,2 C
13.01.2012 09:22 2,9 C 84 % 1015,5 hPa 0,0 l/m 21,2 km/h (4 Bft) W 270 0,5 C -1,7 C
13.01.2012 09:27 3,0 C 84 % 1015,5 hPa 0,0 l/m 26,3 km/h (4 Bft) W 270 0,6 C -2,2 C
13.01.2012 09:32 3,0 C 84 % 1015,0 hPa 0,0 l/m 6,5 km/h (2 Bft) SW 225 0,6 C 1,2 C
13.01.2012 09:37 3,0 C 84 % 1015,2 hPa 0,0 l/m 19,4 km/h (3 Bft) W 270 0,6 C -1,4 C
13.01.2012 09:42 3,0 C 84 % 1015,4 hPa 0,0 l/m 24,5 km/h (4 Bft) W-NW 292 0,6 C -2,0 C
13.01.2012 09:47 3,0 C 84 % 1015,3 hPa 0,0 l/m 18,7 km/h (3 Bft) NW 315 0,6 C -1,3 C
13.01.2012 09:52 3,1 C 84 % 1015,2 hPa 0,0 l/m 14,4 km/h (3 Bft) W-NW 292 0,7 C -0,5 C
13.01.2012 09:57 3,1 C 84 % 1015,1 hPa 0,0 l/m 15,1 km/h (3 Bft) W-NW 292 0,7 C -0,6 C
13.01.2012 10:02 3,1 C 84 % 1015,3 hPa 0,0 l/m 15,5 km/h (3 Bft) W-NW 292 0,7 C -0,7 C
13.01.2012 10:07 3,1 C 83 % 1015,3 hPa 0,0 l/m 22,3 km/h (4 Bft) W-NW 292 0,5 C -1,6 C
13.01.2012 10:12 3,2 C 83 % 1015,3 hPa 0,0 l/m 30,2 km/h (5 Bft) W 270 0,6 C -2,3 C
13.01.2012 10:17 3,3 C 83 % 1015,3 hPa 0,0 l/m 11,5 km/h (2 Bft) W 270 0,7 C 0,3 C
13.01.2012 10:22 3,3 C 83 % 1015,6 hPa 0,0 l/m 15,8 km/h (3 Bft) NW 315 0,7 C -0,5 C
13.01.2012 10:27 3,3 C 83 % 1015,6 hPa 0,0 l/m 28,8 km/h (4 Bft) W 270 0,7 C -2,1 C
13.01.2012 10:32 3,3 C 82 % 1015,5 hPa 0,0 l/m 29,5 km/h (5 Bft) W-NW 292 0,5 C -2,1 C
13.01.2012 10:37 3,3 C 82 % 1015,6 hPa 0,0 l/m 16,6 km/h (3 Bft) W-NW 292 0,5 C -0,6 C
13.01.2012 10:42 3,4 C 82 % 1015,7 hPa 0,0 l/m 19,4 km/h (3 Bft) W 270 0,6 C -0,9 C
13.01.2012 10:47 3,4 C 82 % 1015,6 hPa 0,0 l/m 19,1 km/h (3 Bft) W 270 0,6 C -0,8 C
13.01.2012 10:52 3,4 C 82 % 1015,8 hPa 0,0 l/m 19,4 km/h (3 Bft) W 270 0,6 C -0,9 C
13.01.2012 10:57 3,4 C 82 % 1015,7 hPa 0,0 l/m 22,3 km/h (4 Bft) NW 315 0,6 C -1,2 C
13.01.2012 11:02 3,4 C 81 % 1015,8 hPa 0,0 l/m 30,2 km/h (5 Bft) W 270 0,5 C -2,1 C
13.01.2012 11:07 3,4 C 81 % 1015,5 hPa 0,0 l/m 14,8 km/h (3 Bft) W-SW 247 0,5 C -0,2 C
13.01.2012 11:12 3,5 C 81 % 1015,5 hPa 0,0 l/m 16,9 km/h (3 Bft) W 270 0,6 C -0,4 C
13.01.2012 11:17 3,5 C 81 % 1015,4 hPa 0,0 l/m 24,5 km/h (4 Bft) NW 315 0,6 C -1,4 C
13.01.2012 11:22 3,6 C 80 % 1015,3 hPa 0,0 l/m 19,1 km/h (3 Bft) W-NW 292 0,5 C -0,6 C
13.01.2012 11:27 3,6 C 80 % 1015,1 hPa 0,0 l/m 28,4 km/h (4 Bft) W-SW 247 0,5 C -1,6 C
13.01.2012 11:32 3,8 C 81 % 1015,1 hPa 0,0 l/m 24,8 km/h (4 Bft) W 270 0,8 C -1,0 C
13.01.2012 11:37 3,7 C 80 % 1015,0 hPa 0,0 l/m 6,1 km/h (2 Bft) W 270 0,6 C 2,2 C
13.01.2012 11:42 3,8 C 80 % 1014,9 hPa 0,0 l/m 23,4 km/h (4 Bft) W-NW 292 0,7 C -0,9 C
13.01.2012 11:47 3,9 C 80 % 1015,1 hPa 0,0 l/m 9,4 km/h (2 Bft) W-NW 292 0,8 C 1,5 C
13.01.2012 11:52 3,9 C 79 % 1015,1 hPa 0,0 l/m 22,0 km/h (4 Bft) W 270 0,6 C -0,6 C
13.01.2012 11:57 4,0 C 79 % 1014,9 hPa 0,0 l/m 27,4 km/h (4 Bft) W 270 0,7 C -1,0 C
13.01.2012 12:02 4,1 C 79 % 1015,0 hPa 0,0 l/m 17,6 km/h (3 Bft) W-NW 292 0,8 C 0,2 C
13.01.2012 12:07 4,1 C 79 % 1015,1 hPa 0,0 l/m 20,9 km/h (4 Bft) W-NW 292 0,8 C -0,2 C
13.01.2012 12:12 4,1 C 79 % 1014,9 hPa 0,0 l/m 22,7 km/h (4 Bft) NW 315 0,8 C -0,4 C
13.01.2012 12:17 4,1 C 79 % 1014,9 hPa 0,0 l/m 25,6 km/h (4 Bft) W 270 0,8 C -0,7 C
13.01.2012 12:22 4,1 C 79 % 1014,9 hPa 0,0 l/m 22,0 km/h (4 Bft) NW 315 0,8 C -0,3 C
13.01.2012 12:27 4,1 C 79 % 1015,0 hPa 0,0 l/m 18,4 km/h (3 Bft) W-NW 292 0,8 C 0,1 C
13.01.2012 12:32 4,1 C 79 % 1014,9 hPa 0,0 l/m 14,8 km/h (3 Bft) W-NW 292 0,8 C 0,7 C
13.01.2012 12:37 4,1 C 79 % 1014,9 hPa 0,0 l/m 26,6 km/h (4 Bft) NW 315 0,8 C -0,8 C
13.01.2012 12:42 4,1 C 79 % 1014,9 hPa 0,0 l/m 14,0 km/h (3 Bft) NW 315 0,8 C 0,8 C
13.01.2012 12:47 3,9 C 80 % 1014,8 hPa 0,0 l/m 10,4 km/h (2 Bft) W-NW 292 0,8 C 1,3 C
13.01.2012 12:52 3,9 C 81 % 1014,8 hPa 0,0 l/m 20,5 km/h (4 Bft) NW 315 0,9 C -0,4 C
13.01.2012 12:57 3,9 C 81 % 1014,7 hPa 0,0 l/m 30,2 km/h (5 Bft) NW 315 0,9 C -1,4 C
13.01.2012 13:02 4,1 C 80 % 1014,6 hPa 0,0 l/m 16,6 km/h (3 Bft) W-NW 292 1,0 C 0,4 C
13.01.2012 13:07 4,1 C 80 % 1014,7 hPa 0,0 l/m 28,8 km/h (4 Bft) W-NW 292 1,0 C -1,0 C
13.01.2012 13:12 4,1 C 80 % 1014,6 hPa 0,0 l/m 16,6 km/h (3 Bft) W 270 1,0 C 0,4 C
13.01.2012 13:17 4,1 C 80 % 1014,8 hPa 0,0 l/m 11,5 km/h (2 Bft) W-SW 247 1,0 C 1,3 C
13.01.2012 13:22 4,2 C 80 % 1014,8 hPa 0,0 l/m 18,7 km/h (3 Bft) W-NW 292 1,1 C 0,2 C
13.01.2012 13:27 4,2 C 80 % 1014,8 hPa 0,0 l/m 29,9 km/h (5 Bft) W-NW 292 1,1 C -1,0 C
13.01.2012 13:32 4,2 C 80 % 1014,8 hPa 0,0 l/m 16,9 km/h (3 Bft) W 270 1,1 C 0,5 C
13.01.2012 13:37 4,3 C 80 % 1014,8 hPa 0,0 l/m 19,1 km/h (3 Bft) W 270 1,2 C 0,3 C
13.01.2012 13:42 4,3 C 80 % 1015,0 hPa 0,0 l/m 27,7 km/h (4 Bft) W-NW 292 1,2 C -0,7 C
13.01.2012 13:47 4,3 C 80 % 1014,8 hPa 0,0 l/m 18,0 km/h (3 Bft) W-NW 292 1,2 C 0,4 C
13.01.2012 13:52 4,3 C 79 % 1014,8 hPa 0,0 l/m 18,7 km/h (3 Bft) NW 315 1,0 C 0,4 C
13.01.2012 13:57 4,3 C 80 % 1014,7 hPa 0,0 l/m 10,4 km/h (2 Bft) W 270 1,2 C 1,7 C
13.01.2012 14:02 4,4 C 80 % 1014,8 hPa 0,0 l/m 38,5 km/h (5 Bft) W-NW 292 1,3 C -1,4 C
13.01.2012 14:07 4,4 C 79 % 1014,8 hPa 0,0 l/m 23,8 km/h (4 Bft) W-NW 292 1,1 C -0,1 C
13.01.2012 14:12 4,4 C 79 % 1014,8 hPa 0,0 l/m 17,6 km/h (3 Bft) W-NW 292 1,1 C 0,6 C
13.01.2012 14:17 4,5 C 79 % 1014,8 hPa 0,0 l/m 13,0 km/h (3 Bft) W 270 1,2 C 1,5 C
13.01.2012 14:22 4,5 C 79 % 1014,7 hPa 0,0 l/m 17,6 km/h (3 Bft) W-NW 292 1,2 C 0,7 C
13.01.2012 14:27 4,5 C 79 % 1014,8 hPa 0,0 l/m 15,1 km/h (3 Bft) W 270 1,2 C 1,1 C
13.01.2012 14:32 4,4 C 79 % 1014,8 hPa 0,0 l/m 20,5 km/h (4 Bft) W-NW 292 1,1 C 0,2 C
13.01.2012 14:37 4,4 C 79 % 1014,8 hPa 0,0 l/m 13,3 km/h (3 Bft) NW 315 1,1 C 1,3 C
13.01.2012 14:42 4,4 C 79 % 1015,1 hPa 0,0 l/m 10,8 km/h (2 Bft) NW 315 1,1 C 1,8 C
13.01.2012 14:47 4,4 C 79 % 1015,1 hPa 0,0 l/m 9,7 km/h (2 Bft) N-NO 22 1,1 C 2,0 C
13.01.2012 14:52 4,3 C 79 % 1015,1 hPa 0,0 l/m 16,9 km/h (3 Bft) N-NW 337 1,0 C 0,6 C
13.01.2012 14:57 4,3 C 79 % 1015,1 hPa 0,0 l/m 21,2 km/h (4 Bft) W-NW 292 1,0 C 0,0 C
13.01.2012 15:02 4,3 C 80 % 1015,0 hPa 0,0 l/m 10,4 km/h (2 Bft) W 270 1,2 C 1,7 C
13.01.2012 15:07 4,3 C 80 % 1015,0 hPa 0,0 l/m 13,7 km/h (3 Bft) W 270 1,2 C 1,1 C
13.01.2012 15:12 4,2 C 80 % 1015,1 hPa 0,0 l/m 8,3 km/h (2 Bft) W-SW 247 1,1 C 2,1 C
13.01.2012 15:17 4,1 C 80 % 1015,1 hPa 0,0 l/m 11,9 km/h (2 Bft) W-NW 292 1,0 C 1,2 C
13.01.2012 15:22 4,1 C 80 % 1015,3 hPa 0,0 l/m 14,8 km/h (3 Bft) NW 315 1,0 C 0,7 C
13.01.2012 15:27 4,1 C 81 % 1015,3 hPa 0,0 l/m 13,3 km/h (3 Bft) W 270 1,1 C 0,9 C
13.01.2012 15:32 4,0 C 81 % 1015,4 hPa 0,0 l/m 10,8 km/h (2 Bft) W-NW 292 1,0 C 1,3 C
13.01.2012 15:37 3,9 C 81 % 1015,5 hPa 0,0 l/m 16,2 km/h (3 Bft) NW 315 0,9 C 0,2 C
13.01.2012 15:42 3,9 C 81 % 1015,6 hPa 0,0 l/m 13,3 km/h (3 Bft) W-NW 292 0,9 C 0,7 C
13.01.2012 15:47 3,9 C 82 % 1015,7 hPa 0,0 l/m 10,8 km/h (2 Bft) W-NW 292 1,1 C 1,2 C
13.01.2012 15:52 3,9 C 82 % 1015,7 hPa 0,0 l/m 16,6 km/h (3 Bft) W-NW 292 1,1 C 0,1 C
13.01.2012 15:57 3,9 C 82 % 1015,7 hPa 0,0 l/m 14,4 km/h (3 Bft) W-NW 292 1,1 C 0,5 C
13.01.2012 16:02 3,9 C 82 % 1015,8 hPa 0,0 l/m 16,9 km/h (3 Bft) W 270 1,1 C 0,1 C
13.01.2012 16:07 3,8 C 82 % 1015,8 hPa 0,0 l/m 15,8 km/h (3 Bft) W-NW 292 1,0 C 0,1 C
13.01.2012 16:12 3,8 C 82 % 1015,9 hPa 0,0 l/m 6,1 km/h (2 Bft) W-NW 292 1,0 C 2,3 C
13.01.2012 16:17 3,8 C 83 % 1016,0 hPa 0,0 l/m 21,6 km/h (4 Bft) W-NW 292 1,2 C -0,6 C
13.01.2012 16:22 3,8 C 83 % 1016,0 hPa 0,0 l/m 10,4 km/h (2 Bft) W 270 1,2 C 1,1 C
13.01.2012 16:27 3,6 C 83 % 1016,1 hPa 0,0 l/m 11,9 km/h (2 Bft) NW 315 1,0 C 0,6 C
13.01.2012 16:32 3,6 C 83 % 1016,1 hPa 0,0 l/m 11,2 km/h (2 Bft) N-NW 337 1,0 C 0,7 C
13.01.2012 16:37 3,6 C 83 % 1016,1 hPa 0,0 l/m 13,0 km/h (3 Bft) W-SW 247 1,0 C 0,4 C
13.01.2012 16:42 3,6 C 83 % 1016,2 hPa 0,0 l/m 19,1 km/h (3 Bft) NW 315 1,0 C -0,6 C
13.01.2012 16:47 3,5 C 83 % 1016,1 hPa 0,0 l/m 15,8 km/h (3 Bft) W 270 0,9 C -0,2 C
13.01.2012 16:52 3,5 C 83 % 1016,3 hPa 0,0 l/m 18,7 km/h (3 Bft) NW 315 0,9 C -0,7 C
13.01.2012 16:57 3,6 C 82 % 1016,0 hPa 0,0 l/m 22,0 km/h (4 Bft) W-NW 292 0,8 C -0,9 C
13.01.2012 17:02 3,6 C 82 % 1016,1 hPa 0,0 l/m 11,9 km/h (2 Bft) W-NW 292 0,8 C 0,6 C
13.01.2012 17:07 3,6 C 82 % 1016,0 hPa 0,0 l/m 7,6 km/h (2 Bft) NW 315 0,8 C 1,6 C
13.01.2012 17:12 3,5 C 81 % 1016,0 hPa 0,0 l/m 10,1 km/h (2 Bft) W-NW 292 0,6 C 0,8 C
13.01.2012 17:17 3,5 C 80 % 1016,1 hPa 0,0 l/m 9,0 km/h (2 Bft) W-NW 292 0,4 C 1,1 C
13.01.2012 17:22 3,4 C 80 % 1016,2 hPa 0,0 l/m 9,4 km/h (2 Bft) W-NW 292 0,3 C 0,9 C
13.01.2012 17:27 3,4 C 80 % 1016,3 hPa 0,0 l/m 12,2 km/h (2 Bft) W-NW 292 0,3 C 0,3 C
13.01.2012 17:32 3,3 C 80 % 1016,3 hPa 0,0 l/m 10,1 km/h (2 Bft) W 270 0,2 C 0,6 C
13.01.2012 17:37 3,3 C 80 % 1016,4 hPa 0,0 l/m 11,2 km/h (2 Bft) NW 315 0,2 C 0,4 C
13.01.2012 17:42 3,3 C 80 % 1016,6 hPa 0,0 l/m 16,9 km/h (3 Bft) W 270 0,2 C -0,6 C
13.01.2012 17:47 3,3 C 80 % 1016,6 hPa 0,0 l/m 10,1 km/h (2 Bft) W-NW 292 0,2 C 0,6 C
13.01.2012 17:52 3,2 C 80 % 1016,7 hPa 0,0 l/m 9,7 km/h (2 Bft) W-NW 292 0,1 C 0,6 C
13.01.2012 17:57 3,2 C 80 % 1016,6 hPa 0,0 l/m 8,6 km/h (2 Bft) W 270 0,1 C 0,9 C
13.01.2012 18:02 3,2 C 80 % 1016,7 hPa 0,0 l/m 19,4 km/h (3 Bft) W-NW 292 0,1 C -1,1 C
13.01.2012 18:07 3,1 C 80 % 1016,7 hPa 0,0 l/m 8,3 km/h (2 Bft) W-NW 292 -0,0 C 0,8 C
13.01.2012 18:12 3,1 C 80 % 1016,7 hPa 0,0 l/m 8,3 km/h (2 Bft) W 270 -0,0 C 0,8 C
13.01.2012 18:17 3,2 C 80 % 1016,7 hPa 0,0 l/m 16,2 km/h (3 Bft) W 270 0,1 C -0,7 C
13.01.2012 18:22 3,1 C 80 % 1016,8 hPa 0,0 l/m 15,1 km/h (3 Bft) W-NW 292 -0,0 C -0,6 C
13.01.2012 18:27 3,1 C 80 % 1016,8 hPa 0,0 l/m 11,2 km/h (2 Bft) W-NW 292 -0,0 C 0,1 C
13.01.2012 18:32 3,1 C 80 % 1016,7 hPa 0,0 l/m 10,8 km/h (2 Bft) W-NW 292 -0,0 C 0,2 C
13.01.2012 18:37 3,1 C 80 % 1016,9 hPa 0,0 l/m 14,0 km/h (3 Bft) W-NW 292 -0,0 C -0,4 C
13.01.2012 18:42 3,1 C 81 % 1017,0 hPa 0,0 l/m 9,4 km/h (2 Bft) W-NW 292 0,2 C 0,5 C
13.01.2012 18:47 3,1 C 81 % 1017,0 hPa 0,0 l/m 7,2 km/h (2 Bft) W-NW 292 0,2 C 1,1 C
13.01.2012 18:52 3,1 C 81 % 1017,0 hPa 0,0 l/m 7,9 km/h (2 Bft) NW 315 0,2 C 0,9 C
13.01.2012 18:57 3,1 C 81 % 1017,0 hPa 0,0 l/m 15,1 km/h (3 Bft) W-NW 292 0,2 C -0,6 C
13.01.2012 19:02 3,1 C 82 % 1017,1 hPa 0,0 l/m 10,8 km/h (2 Bft) W-NW 292 0,3 C 0,2 C
13.01.2012 19:07 3,1 C 82 % 1017,1 hPa 0,0 l/m 10,1 km/h (2 Bft) W 270 0,3 C 0,4 C
13.01.2012 19:12 3,1 C 82 % 1017,3 hPa 0,0 l/m 14,4 km/h (3 Bft) NW 315 0,3 C -0,5 C
13.01.2012 19:17 3,1 C 82 % 1017,1 hPa 0,0 l/m 12,6 km/h (3 Bft) W 270 0,3 C -0,2 C
13.01.2012 19:22 3,2 C 83 % 1017,3 hPa 0,0 l/m 20,5 km/h (4 Bft) W-NW 292 0,6 C -1,3 C
13.01.2012 19:27 3,2 C 83 % 1017,3 hPa 0,0 l/m 11,2 km/h (2 Bft) W 270 0,6 C 0,2 C
13.01.2012 19:32 3,2 C 83 % 1017,3 hPa 0,0 l/m 20,5 km/h (4 Bft) W-NW 292 0,6 C -1,3 C
13.01.2012 19:37 3,2 C 83 % 1017,2 hPa 0,0 l/m 16,6 km/h (3 Bft) W 270 0,6 C -0,7 C
13.01.2012 19:42 3,2 C 83 % 1017,4 hPa 0,0 l/m 9,0 km/h (2 Bft) W 270 0,6 C 0,8 C
13.01.2012 19:47 3,1 C 83 % 1017,3 hPa 0,0 l/m 15,8 km/h (3 Bft) W-NW 292 0,5 C -0,7 C
13.01.2012 19:52 3,1 C 83 % 1017,3 hPa 0,0 l/m 9,7 km/h (2 Bft) W-NW 292 0,5 C 0,5 C
13.01.2012 19:57 3,1 C 83 % 1017,4 hPa 0,0 l/m 12,2 km/h (2 Bft) W-NW 292 0,5 C -0,1 C
13.01.2012 20:02 3,1 C 83 % 1017,2 hPa 0,0 l/m 18,0 km/h (3 Bft) W-NW 292 0,5 C -1,1 C
13.01.2012 20:07 3,0 C 84 % 1017,4 hPa 0,0 l/m 8,6 km/h (2 Bft) W 270 0,6 C 0,6 C
13.01.2012 20:12 3,0 C 84 % 1017,5 hPa 0,0 l/m 13,0 km/h (3 Bft) W-NW 292 0,6 C -0,4 C
13.01.2012 20:17 3,0 C 84 % 1017,5 hPa 0,0 l/m 9,7 km/h (2 Bft) W 270 0,6 C 0,3 C
13.01.2012 20:22 3,0 C 84 % 1017,6 hPa 0,0 l/m 18,4 km/h (3 Bft) W-NW 292 0,6 C -1,2 C
13.01.2012 20:27 3,0 C 84 % 1017,4 hPa 0,0 l/m 20,9 km/h (4 Bft) W 270 0,6 C -1,6 C
13.01.2012 20:32 3,0 C 84 % 1017,4 hPa 0,0 l/m 12,6 km/h (3 Bft) NW 315 0,6 C -0,3 C
13.01.2012 20:37 3,1 C 84 % 1017,5 hPa 0,0 l/m 17,3 km/h (3 Bft) NW 315 0,7 C -1,0 C
13.01.2012 20:42 3,1 C 84 % 1017,4 hPa 0,0 l/m 9,4 km/h (2 Bft) NW 315 0,7 C 0,5 C
13.01.2012 20:47 3,1 C 84 % 1017,6 hPa 0,0 l/m 22,0 km/h (4 Bft) W-NW 292 0,7 C -1,6 C
13.01.2012 20:52 3,1 C 84 % 1017,5 hPa 0,0 l/m 17,3 km/h (3 Bft) NW 315 0,7 C -1,0 C
13.01.2012 20:57 3,1 C 84 % 1017,4 hPa 0,0 l/m 10,4 km/h (2 Bft) NW 315 0,7 C 0,3 C
13.01.2012 21:02 3,1 C 84 % 1017,6 hPa 0,0 l/m 15,8 km/h (3 Bft) W-NW 292 0,7 C -0,7 C
13.01.2012 21:07 3,1 C 83 % 1017,6 hPa 0,0 l/m 16,2 km/h (3 Bft) W 270 0,5 C -0,8 C
13.01.2012 21:12 3,1 C 83 % 1017,6 hPa 0,0 l/m 14,8 km/h (3 Bft) NW 315 0,5 C -0,6 C
13.01.2012 21:17 3,1 C 83 % 1017,6 hPa 0,0 l/m 13,7 km/h (3 Bft) NW 315 0,5 C -0,4 C
13.01.2012 21:22 3,0 C 83 % 1017,6 hPa 0,0 l/m 10,1 km/h (2 Bft) W 270 0,4 C 0,2 C
13.01.2012 21:27 3,1 C 83 % 1017,7 hPa 0,0 l/m 14,8 km/h (3 Bft) W-NW 292 0,5 C -0,6 C
13.01.2012 21:32 3,0 C 83 % 1017,6 hPa 0,0 l/m 13,0 km/h (3 Bft) W 270 0,4 C -0,4 C
13.01.2012 21:37 3,0 C 83 % 1017,8 hPa 0,0 l/m 14,8 km/h (3 Bft) W-NW 292 0,4 C -0,7 C
13.01.2012 21:42 2,9 C 82 % 1017,7 hPa 0,0 l/m 15,5 km/h (3 Bft) NW 315 0,1 C -0,9 C
13.01.2012 21:47 2,9 C 82 % 1017,7 hPa 0,0 l/m 16,6 km/h (3 Bft) W-NW 292 0,1 C -1,1 C
13.01.2012 21:52 2,9 C 82 % 1017,8 hPa 0,0 l/m 17,3 km/h (3 Bft) W-NW 292 0,1 C -1,2 C
13.01.2012 21:57 2,9 C 82 % 1017,8 hPa 0,0 l/m 22,0 km/h (4 Bft) W-NW 292 0,1 C -1,8 C
13.01.2012 22:02 2,9 C 82 % 1017,7 hPa 0,0 l/m 12,6 km/h (3 Bft) W 270 0,1 C -0,4 C
13.01.2012 22:07 2,9 C 82 % 1017,7 hPa 0,0 l/m 17,6 km/h (3 Bft) NW 315 0,1 C -1,2 C
13.01.2012 22:12 2,9 C 82 % 1017,7 hPa 0,0 l/m 23,0 km/h (4 Bft) NW 315 0,1 C -2,0 C
13.01.2012 22:17 2,9 C 82 % 1017,9 hPa 0,0 l/m 21,6 km/h (4 Bft) W-NW 292 0,1 C -1,8 C
13.01.2012 22:22 2,9 C 83 % 1017,9 hPa 0,0 l/m 19,1 km/h (3 Bft) W 270 0,3 C -1,5 C
13.01.2012 22:27 2,9 C 83 % 1017,8 hPa 0,0 l/m 9,4 km/h (2 Bft) W 270 0,3 C 0,3 C
13.01.2012 22:32 2,9 C 83 % 1017,9 hPa 0,0 l/m 21,6 km/h (4 Bft) N-NW 337 0,3 C -1,8 C
13.01.2012 22:37 2,9 C 83 % 1017,8 hPa 0,0 l/m 12,2 km/h (2 Bft) W-NW 292 0,3 C -0,3 C
13.01.2012 22:42 2,9 C 83 % 1018,1 hPa 0,0 l/m 9,7 km/h (2 Bft) W-NW 292 0,3 C 0,2 C
13.01.2012 22:47 2,9 C 83 % 1018,0 hPa 0,0 l/m 19,1 km/h (3 Bft) W-NW 292 0,3 C -1,5 C
13.01.2012 22:52 2,9 C 83 % 1018,1 hPa 0,0 l/m 9,0 km/h (2 Bft) W-NW 292 0,3 C 0,4 C
13.01.2012 22:57 2,9 C 83 % 1018,2 hPa 0,0 l/m 19,1 km/h (3 Bft) W-NW 292 0,3 C -1,5 C
13.01.2012 23:02 2,9 C 83 % 1018,0 hPa 0,0 l/m 11,5 km/h (2 Bft) W 270 0,3 C -0,2 C
13.01.2012 23:07 2,9 C 83 % 1018,2 hPa 0,0 l/m 17,3 km/h (3 Bft) N-NO 22 0,3 C -1,2 C
13.01.2012 23:12 2,9 C 83 % 1018,1 hPa 0,0 l/m 14,4 km/h (3 Bft) W-NW 292 0,3 C -0,7 C
13.01.2012 23:17 2,8 C 83 % 1018,3 hPa 0,0 l/m 6,8 km/h (2 Bft) N 360 0,2 C 0,9 C
13.01.2012 23:22 2,8 C 83 % 1018,2 hPa 0,0 l/m 17,3 km/h (3 Bft) NW 315 0,2 C -1,3 C
13.01.2012 23:27 2,8 C 83 % 1018,4 hPa 0,0 l/m 13,7 km/h (3 Bft) W-NW 292 0,2 C -0,7 C
13.01.2012 23:32 2,8 C 83 % 1018,5 hPa 0,0 l/m 17,6 km/h (3 Bft) W-NW 292 0,2 C -1,4 C
13.01.2012 23:37 2,8 C 83 % 1018,4 hPa 0,0 l/m 24,5 km/h (4 Bft) W-NW 292 0,2 C -2,3 C
13.01.2012 23:42 2,8 C 83 % 1018,5 hPa 0,0 l/m 18,4 km/h (3 Bft) W 270 0,2 C -1,5 C
13.01.2012 23:47 2,8 C 83 % 1018,4 hPa 0,0 l/m 16,9 km/h (3 Bft) W-NW 292 0,2 C -1,3 C
13.01.2012 23:52 2,7 C 83 % 1018,6 hPa 0,0 l/m 14,4 km/h (3 Bft) W-NW 292 0,1 C -1,0 C
13.01.2012 23:57 2,7 C 83 % 1018,5 hPa 0,0 l/m 14,0 km/h (3 Bft) W 270 0,1 C -0,9 C
_ Min-Zeit 06:37 11:52 07:22 - 11:37 - - 18:07 06:57
Minimum _ 2,6 C 79 % 1014,4 hPa - 6,1 km/h (2 Bft) - - -0,0 C -2,6 C
_ Max-Zeit 14:17 06:22 23:52 04:37 14:02 - - 00:27 16:12
Maximum _ 4,5 C 86 % 1018,6 hPa 0,5 l/m 38,5 km/h
W-NW (5 Bft)
- - 1,4 C 2,3 C
Durchschnitt _ 3,4 C 83 % 1015,8 hPa #0,5 l/m 16,8 km/h (3 Bft) W-NW - 0,7 C -0,4 C
(c) by David Heller